createdAt,value
2023-03-29T00:00:35.621Z,11.30
2023-03-29T00:03:17.039Z,10.05
2023-03-29T00:05:45.390Z,10.95
2023-03-29T00:08:15.261Z,12.02
2023-03-29T00:10:43.429Z,10.85
2023-03-29T00:13:11.568Z,10.60
2023-03-29T00:15:39.812Z,11.85
2023-03-29T00:18:07.751Z,11.13
2023-03-29T00:20:36.275Z,11.82
2023-03-29T00:23:04.243Z,11.57
2023-03-29T00:25:33.770Z,9.95
2023-03-29T00:28:01.708Z,9.27
2023-03-29T00:30:29.963Z,9.88
2023-03-29T00:32:57.937Z,10.18
2023-03-29T00:35:26.181Z,8.98
2023-03-29T00:37:54.133Z,9.32
2023-03-29T00:40:22.287Z,9.13
2023-03-29T00:42:51.688Z,9.07
2023-03-29T00:45:22.267Z,8.82
2023-03-29T00:47:52.313Z,10.40
2023-03-29T00:50:25.605Z,9.23
2023-03-29T00:52:57.922Z,10.00
2023-03-29T00:55:28.857Z,10.40
2023-03-29T00:58:00.896Z,9.98
2023-03-29T01:03:00.855Z,9.77
2023-03-29T01:05:30.893Z,9.40
2023-03-29T01:08:01.445Z,9.38
2023-03-29T01:10:34.218Z,10.18
2023-03-29T01:13:07.636Z,8.55
2023-03-29T01:15:36.586Z,8.82
2023-03-29T01:18:04.583Z,9.27
2023-03-29T01:20:45.069Z,8.82
2023-03-29T01:23:43.523Z,8.98
2023-03-29T01:26:15.949Z,10.00
2023-03-29T01:28:47.960Z,8.55
2023-03-29T01:31:19.686Z,9.65
2023-03-29T01:33:52.049Z,8.98
2023-03-29T01:36:27.261Z,8.98
2023-03-29T01:38:57.722Z,9.55
2023-03-29T01:41:32.932Z,8.52
2023-03-29T01:44:05.713Z,8.70
2023-03-29T01:46:36.996Z,7.97
2023-03-29T01:49:11.153Z,8.70
2023-03-29T01:51:41.403Z,9.20
2023-03-29T01:54:14.198Z,8.32
2023-03-29T01:56:45.550Z,8.68
2023-03-29T01:59:17.631Z,7.80
2023-03-29T02:04:19.470Z,7.78
2023-03-29T02:06:47.912Z,8.65
2023-03-29T02:09:15.855Z,7.75
2023-03-29T02:11:45.446Z,7.85
2023-03-29T02:14:15.431Z,7.70
2023-03-29T02:16:45.463Z,8.27
2023-03-29T02:19:15.337Z,7.03
2023-03-29T02:21:49.101Z,7.93
2023-03-29T02:24:19.045Z,7.85
2023-03-29T02:26:47.335Z,8.20
2023-03-29T02:29:17.088Z,8.95
2023-03-29T02:31:47.736Z,7.80
2023-03-29T02:34:21.503Z,8.15
2023-03-29T02:36:51.682Z,7.90
2023-03-29T02:39:19.822Z,7.63
2023-03-29T02:41:50.732Z,7.85
2023-03-29T02:44:21.626Z,7.75
2023-03-29T02:46:51.773Z,7.70
2023-03-29T02:49:19.875Z,8.68
2023-03-29T02:51:50.707Z,8.18
2023-03-29T02:54:20.131Z,8.25
2023-03-29T02:56:50.024Z,7.30
2023-03-29T02:59:20.585Z,8.25
2023-03-29T03:01:48.791Z,7.53
2023-03-29T03:04:18.346Z,7.95
2023-03-29T03:06:46.626Z,7.72
2023-03-29T03:09:15.553Z,8.02
2023-03-29T03:11:43.896Z,8.73
2023-03-29T03:14:12.450Z,7.47
2023-03-29T03:16:41.996Z,8.40
2023-03-29T03:19:10.294Z,7.93
2023-03-29T03:21:38.885Z,7.85
2023-03-29T03:24:07.604Z,7.63
2023-03-29T03:26:35.984Z,7.97
2023-03-29T03:29:04.067Z,9.18
2023-03-29T03:31:33.487Z,9.50
2023-03-29T03:34:03.144Z,8.07
2023-03-29T03:36:31.559Z,8.52
2023-03-29T03:38:59.914Z,9.45
2023-03-29T03:41:28.325Z,9.02
2023-03-29T03:43:56.568Z,8.80
2023-03-29T03:46:25.308Z,9.40
2023-03-29T03:48:54.171Z,9.18
2023-03-29T03:51:23.689Z,9.52
2023-03-29T03:53:51.675Z,7.90
2023-03-29T03:56:20.452Z,7.78
2023-03-29T03:58:48.542Z,8.20
2023-03-29T04:01:17.030Z,7.03
2023-03-29T04:03:45.603Z,7.28
2023-03-29T04:06:14.057Z,7.50
2023-03-29T04:08:43.314Z,7.20
2023-03-29T04:11:11.499Z,7.38
2023-03-29T04:13:39.404Z,7.93
2023-03-29T04:16:08.569Z,7.32
2023-03-29T04:18:36.578Z,8.13
2023-03-29T04:21:05.603Z,8.15
2023-03-29T04:23:33.509Z,8.27
2023-03-29T04:26:03.012Z,7.20
2023-03-29T04:28:31.372Z,7.50
2023-03-29T04:30:59.736Z,7.13
2023-03-29T04:33:29.265Z,8.25
2023-03-29T04:35:58.192Z,8.23
2023-03-29T04:38:26.651Z,7.07
2023-03-29T04:40:55.250Z,6.88
2023-03-29T04:43:24.819Z,8.15
2023-03-29T04:45:53.016Z,6.35
2023-03-29T04:48:22.294Z,8.25
2023-03-29T04:50:50.619Z,7.90
2023-03-29T04:53:18.639Z,8.15
2023-03-29T04:55:47.884Z,9.40
2023-03-29T04:58:15.834Z,8.18
2023-03-29T05:00:45.820Z,9.40
2023-03-29T05:03:14.555Z,10.05
2023-03-29T05:05:42.932Z,9.15
2023-03-29T05:08:10.933Z,9.85
2023-03-29T05:10:42.338Z,11.27
2023-03-29T05:13:10.354Z,9.40
2023-03-29T05:15:41.238Z,10.43
2023-03-29T05:18:10.770Z,9.10
2023-03-29T05:20:40.455Z,8.65
2023-03-29T05:23:08.393Z,9.15
2023-03-29T05:25:37.030Z,9.95
2023-03-29T05:28:05.307Z,10.48
2023-03-29T05:30:33.799Z,9.23
2023-03-29T05:33:02.896Z,10.57
2023-03-29T05:35:32.902Z,8.95
2023-03-29T05:38:01.737Z,10.23
2023-03-29T05:40:31.347Z,9.23
2023-03-29T05:42:59.532Z,8.93
2023-03-29T05:45:28.945Z,8.65
2023-03-29T05:47:57.590Z,9.80
2023-03-29T05:50:26.022Z,9.88
2023-03-29T05:52:55.244Z,10.52
2023-03-29T05:55:23.659Z,11.05
2023-03-29T05:57:52.438Z,9.80
2023-03-29T06:00:23.936Z,10.93
2023-03-29T06:02:53.632Z,9.35
2023-03-29T06:05:21.875Z,9.30
2023-03-29T06:07:49.857Z,10.45
2023-03-29T06:10:20.267Z,9.38
2023-03-29T06:12:49.368Z,9.73
2023-03-29T06:15:18.095Z,9.50
2023-03-29T06:17:47.144Z,8.40
2023-03-29T06:20:15.944Z,8.98
2023-03-29T06:22:43.829Z,9.23
2023-03-29T06:25:12.376Z,9.32
2023-03-29T06:27:41.852Z,8.82
2023-03-29T06:30:12.164Z,8.52
2023-03-29T06:32:40.177Z,9.10
2023-03-29T06:35:09.658Z,7.47
2023-03-29T06:37:38.953Z,7.85
2023-03-29T06:40:10.035Z,9.40
2023-03-29T06:42:37.960Z,9.18
2023-03-29T06:45:08.696Z,8.63
2023-03-29T06:47:36.658Z,8.77
2023-03-29T06:50:05.194Z,7.93
2023-03-29T06:52:33.601Z,7.88
2023-03-29T06:55:03.954Z,7.43
2023-03-29T06:57:32.026Z,8.30
2023-03-29T07:00:00.409Z,7.45
2023-03-29T07:02:30.532Z,7.30
2023-03-29T07:04:59.094Z,7.68
2023-03-29T07:07:33.181Z,6.47
2023-03-29T07:10:01.802Z,6.68
2023-03-29T07:12:29.840Z,6.68
2023-03-29T07:14:58.460Z,8.15
2023-03-29T07:17:27.013Z,6.43
2023-03-29T07:19:57.009Z,5.95
2023-03-29T07:22:24.939Z,5.60
2023-03-29T07:24:53.253Z,6.03
2023-03-29T07:27:22.304Z,5.78
2023-03-29T07:29:51.605Z,4.80
2023-03-29T07:32:19.721Z,5.20
2023-03-29T07:34:49.153Z,5.10
2023-03-29T07:37:18.402Z,5.03
2023-03-29T07:39:46.575Z,4.70
2023-03-29T07:42:14.569Z,4.55
2023-03-29T07:44:42.847Z,4.03
2023-03-29T07:47:10.748Z,3.95
2023-03-29T07:49:39.104Z,3.00
2023-03-29T07:52:07.104Z,3.10
2023-03-29T07:54:36.750Z,3.08
2023-03-29T07:57:05.101Z,3.70
2023-03-29T07:59:33.356Z,3.30
2023-03-29T08:02:01.389Z,2.83
2023-03-29T08:04:29.738Z,1.83
2023-03-29T08:06:57.931Z,2.92
2023-03-29T08:09:27.243Z,2.67
2023-03-29T08:11:57.469Z,1.80
2023-03-29T08:14:25.845Z,2.42
2023-03-29T08:16:53.828Z,2.60
2023-03-29T08:19:22.264Z,2.55
2023-03-29T08:21:50.479Z,2.97
2023-03-29T08:24:20.923Z,3.10
2023-03-29T08:26:49.731Z,2.63
2023-03-29T08:29:19.221Z,2.85
2023-03-29T08:31:47.193Z,3.92
2023-03-29T08:34:16.031Z,2.50
2023-03-29T08:36:43.953Z,3.65
2023-03-29T08:39:12.286Z,2.78
2023-03-29T08:41:48.444Z,2.35
2023-03-29T08:44:30.175Z,2.88
2023-03-29T08:47:05.449Z,2.72
2023-03-29T08:49:35.043Z,2.55
2023-03-29T08:52:05.662Z,2.53
2023-03-29T08:54:37.863Z,1.85
2023-03-29T08:57:11.730Z,1.50
2023-03-29T08:59:42.608Z,1.55
2023-03-29T09:02:16.749Z,1.92
2023-03-29T09:04:45.414Z,1.80
2023-03-29T09:07:14.551Z,2.30
2023-03-29T09:09:43.688Z,2.97
2023-03-29T09:12:21.948Z,1.65
2023-03-29T09:15:00.141Z,2.13
2023-03-29T09:17:43.698Z,2.60
2023-03-29T09:20:23.529Z,2.00
2023-03-29T09:22:59.270Z,2.00
2023-03-29T09:25:40.956Z,2.03
2023-03-29T09:28:19.805Z,1.90
2023-03-29T09:30:54.879Z,1.80
2023-03-29T09:33:27.149Z,2.20
2023-03-29T09:36:00.909Z,1.80
2023-03-29T09:38:31.192Z,1.63
2023-03-29T09:41:04.483Z,1.38
2023-03-29T09:43:35.041Z,2.60
2023-03-29T09:46:08.122Z,1.85
2023-03-29T09:48:40.003Z,2.08
2023-03-29T09:51:09.948Z,2.00
2023-03-29T09:53:40.142Z,1.88
2023-03-29T09:56:09.889Z,1.77
2023-03-29T09:58:38.597Z,2.00
2023-03-29T10:01:10.514Z,2.17
2023-03-29T10:03:41.438Z,2.08
2023-03-29T10:06:12.168Z,2.90
2023-03-29T10:08:41.858Z,2.15
2023-03-29T10:11:14.542Z,2.42
2023-03-29T10:13:47.371Z,1.88
2023-03-29T10:16:22.393Z,2.17
2023-03-29T10:18:51.226Z,1.55
2023-03-29T10:21:20.924Z,1.80
2023-03-29T10:23:49.678Z,2.38
2023-03-29T10:26:25.273Z,1.55
2023-03-29T10:28:57.421Z,1.85
2023-03-29T10:31:30.254Z,2.28
2023-03-29T10:36:28.401Z,2.08
2023-03-29T10:39:00.063Z,2.13
2023-03-29T10:41:29.660Z,1.92
2023-03-29T10:43:57.974Z,2.65
2023-03-29T10:46:32.372Z,2.17
2023-03-29T10:49:03.011Z,2.10
2023-03-29T10:51:31.342Z,2.85
2023-03-29T10:54:00.016Z,1.95
2023-03-29T10:56:39.958Z,1.85
2023-03-29T10:59:29.588Z,1.92
2023-03-29T11:02:40.467Z,2.05
2023-03-29T11:05:21.379Z,3.17
2023-03-29T11:08:06.803Z,2.58
2023-03-29T11:10:41.881Z,2.10
2023-03-29T11:13:16.652Z,1.90
2023-03-29T11:15:51.809Z,3.00
2023-03-29T11:18:37.237Z,33.85
2023-03-29T11:21:13.590Z,3.10
2023-03-29T11:23:48.406Z,5.05
2023-03-29T11:26:20.180Z,3.00
2023-03-29T11:28:53.946Z,3.17
2023-03-29T11:31:32.236Z,2.90
2023-03-29T11:34:14.237Z,2.80
2023-03-29T11:36:50.401Z,3.37
2023-03-29T11:39:28.190Z,1.70
2023-03-29T11:42:02.491Z,2.20
2023-03-29T11:44:31.991Z,2.00
2023-03-29T11:47:03.066Z,1.90
2023-03-29T11:49:36.892Z,2.22
2023-03-29T11:52:10.725Z,2.55
2023-03-29T11:54:42.433Z,2.92
2023-03-29T11:57:15.204Z,3.07
2023-03-29T11:59:49.434Z,2.67
2023-03-29T12:02:21.094Z,3.33
2023-03-29T12:04:54.142Z,3.15
2023-03-29T12:07:28.343Z,2.90
2023-03-29T12:10:01.778Z,3.28
2023-03-29T12:12:36.775Z,3.00
2023-03-29T12:15:09.082Z,3.25
2023-03-29T12:17:40.818Z,21.33
2023-03-29T12:20:16.714Z,6.07
2023-03-29T12:22:46.537Z,4.72
2023-03-29T12:25:19.300Z,3.42
2023-03-29T12:27:57.591Z,2.88
2023-03-29T12:30:49.946Z,3.25
2023-03-29T12:33:44.591Z,3.20
2023-03-29T12:36:26.348Z,9.32
2023-03-29T12:38:54.707Z,3.00
2023-03-29T12:41:24.595Z,2.97
2023-03-29T12:43:52.981Z,2.65
2023-03-29T12:46:25.601Z,3.35
2023-03-29T12:48:57.094Z,5.38
2023-03-29T12:51:31.710Z,4.97
2023-03-29T12:54:07.645Z,3.40
2023-03-29T12:56:42.655Z,2.58
2023-03-29T12:59:26.290Z,3.33
2023-03-29T13:02:04.336Z,2.88
2023-03-29T13:04:39.726Z,2.33
2023-03-29T13:07:15.215Z,2.80
2023-03-29T13:09:51.812Z,2.58
2023-03-29T13:12:26.678Z,4.13
2023-03-29T13:14:57.208Z,3.20
2023-03-29T13:17:36.040Z,4.97
2023-03-29T13:20:32.316Z,2.85
2023-03-29T13:23:17.495Z,3.25
2023-03-29T13:25:57.114Z,2.63
2023-03-29T13:28:31.133Z,3.22
2023-03-29T13:31:01.181Z,2.92
2023-03-29T13:33:45.975Z,2.88
2023-03-29T13:36:19.339Z,2.78
2023-03-29T13:38:51.140Z,2.47
2023-03-29T13:41:33.343Z,3.47
2023-03-29T13:46:40.430Z,2.72
2023-03-29T13:49:15.678Z,3.40
2023-03-29T13:51:49.482Z,2.67
2023-03-29T13:54:28.028Z,3.22
2023-03-29T13:57:10.624Z,2.50
2023-03-29T13:59:46.633Z,3.10
2023-03-29T14:02:23.055Z,2.97
2023-03-29T14:04:52.828Z,3.40
2023-03-29T14:07:26.903Z,3.13
2023-03-29T14:09:58.145Z,2.80
2023-03-29T14:12:30.293Z,3.28
2023-03-29T14:17:29.013Z,3.13
2023-03-29T14:19:59.105Z,2.90
2023-03-29T14:22:31.510Z,3.45
2023-03-29T14:25:04.621Z,3.63
2023-03-29T14:27:33.541Z,2.70
2023-03-29T14:30:01.901Z,3.10
2023-03-29T14:32:31.346Z,3.08
2023-03-29T14:35:01.868Z,3.53
2023-03-29T14:37:31.508Z,3.65
2023-03-29T14:40:02.646Z,3.13
2023-03-29T14:42:31.087Z,5.20
2023-03-29T14:45:04.738Z,3.60
2023-03-29T14:47:34.087Z,3.50
2023-03-29T14:50:03.899Z,3.45
2023-03-29T14:52:32.679Z,5.85
2023-03-29T14:55:04.066Z,3.25
2023-03-29T14:57:36.368Z,5.07
2023-03-29T15:00:16.248Z,4.47
2023-03-29T15:02:52.237Z,4.78
2023-03-29T15:05:27.083Z,4.72
2023-03-29T15:07:56.386Z,5.95
2023-03-29T15:10:26.335Z,5.00
2023-03-29T15:12:55.090Z,3.80
2023-03-29T15:15:25.853Z,5.10
2023-03-29T15:17:54.088Z,5.22
2023-03-29T15:20:25.427Z,8.02
2023-03-29T15:22:55.805Z,7.03
2023-03-29T15:25:28.191Z,4.65
2023-03-29T15:28:00.183Z,4.82
2023-03-29T15:30:34.791Z,5.38
2023-03-29T15:33:17.886Z,3.88
2023-03-29T15:35:50.435Z,6.47
2023-03-29T15:40:48.853Z,6.93
2023-03-29T15:43:17.018Z,7.00
2023-03-29T15:45:47.357Z,6.20
2023-03-29T15:48:18.220Z,5.88
2023-03-29T15:50:47.190Z,4.75
2023-03-29T15:53:16.948Z,5.13
2023-03-29T15:55:48.749Z,5.60
2023-03-29T15:58:19.035Z,4.82
2023-03-29T16:00:51.921Z,4.70
2023-03-29T16:03:22.231Z,4.22
2023-03-29T16:05:54.290Z,5.32
2023-03-29T16:08:22.631Z,4.65
2023-03-29T16:10:52.734Z,4.72
2023-03-29T16:13:21.148Z,4.97
2023-03-29T16:15:49.559Z,5.50
2023-03-29T16:18:18.191Z,5.30
2023-03-29T16:20:46.966Z,5.20
2023-03-29T16:23:15.082Z,4.72
2023-03-29T16:25:43.492Z,5.15
2023-03-29T16:28:13.102Z,5.63
2023-03-29T16:30:41.753Z,10.95
2023-03-29T16:33:10.084Z,6.43
2023-03-29T16:35:40.753Z,5.80
2023-03-29T16:38:09.236Z,5.32
2023-03-29T16:40:38.365Z,5.35
2023-03-29T16:43:06.650Z,6.22
2023-03-29T16:45:37.025Z,5.88
2023-03-29T16:48:06.400Z,6.32
2023-03-29T16:50:34.997Z,6.00
2023-03-29T16:53:03.454Z,7.22
2023-03-29T16:55:31.888Z,7.38
2023-03-29T16:58:00.138Z,10.45
2023-03-29T17:00:29.118Z,11.18
2023-03-29T17:03:01.641Z,12.38
2023-03-29T17:05:30.415Z,10.93
2023-03-29T17:07:58.713Z,14.38
2023-03-29T17:10:27.069Z,13.85
2023-03-29T17:12:56.101Z,17.30
2023-03-29T17:15:24.768Z,17.00
2023-03-29T17:17:53.022Z,19.75
2023-03-29T17:20:23.153Z,23.30
2023-03-29T17:22:52.189Z,17.95
2023-03-29T17:25:20.746Z,25.38
2023-03-29T17:27:49.027Z,23.80
2023-03-29T17:30:17.766Z,22.52
2023-03-29T17:32:45.988Z,33.13
2023-03-29T17:35:14.528Z,32.78
2023-03-29T17:37:44.333Z,24.60
2023-03-29T17:40:14.034Z,25.95
2023-03-29T17:42:42.273Z,31.75
2023-03-29T17:45:11.921Z,26.05
2023-03-29T17:47:40.489Z,33.20
2023-03-29T17:50:11.087Z,31.60
2023-03-29T17:52:40.458Z,24.80
2023-03-29T17:55:13.575Z,26.83
2023-03-29T17:57:42.511Z,21.67
2023-03-29T18:00:13.109Z,27.92
2023-03-29T18:02:41.903Z,22.13
2023-03-29T18:05:11.159Z,16.67
2023-03-29T18:07:39.326Z,17.95
2023-03-29T18:10:10.233Z,17.50
2023-03-29T18:12:38.516Z,19.02
2023-03-29T18:15:08.094Z,20.08
2023-03-29T18:17:36.714Z,19.10
2023-03-29T18:20:10.926Z,18.73
2023-03-29T18:22:39.424Z,19.83
2023-03-29T18:25:11.021Z,20.45
2023-03-29T18:27:39.863Z,19.85
2023-03-29T18:30:09.886Z,21.40
2023-03-29T18:32:38.103Z,37.75
2023-03-29T18:35:07.386Z,42.92
2023-03-29T18:37:36.326Z,22.40
2023-03-29T18:40:08.237Z,19.33
2023-03-29T18:42:38.025Z,21.48
2023-03-29T18:45:07.325Z,29.92
2023-03-29T18:47:35.470Z,24.38
2023-03-29T18:50:04.262Z,21.17
2023-03-29T18:52:32.511Z,18.27
2023-03-29T18:55:01.514Z,17.25
2023-03-29T18:57:30.050Z,18.45
2023-03-29T18:59:59.954Z,23.23
2023-03-29T19:02:28.275Z,31.85
2023-03-29T19:04:57.374Z,29.25
2023-03-29T19:07:26.888Z,19.52
2023-03-29T19:09:55.565Z,22.77
2023-03-29T19:12:23.882Z,22.60
2023-03-29T19:14:52.405Z,17.20
2023-03-29T19:17:22.178Z,13.80
2023-03-29T19:19:50.757Z,17.45
2023-03-29T19:22:19.131Z,23.00
2023-03-29T19:24:47.495Z,19.67
2023-03-29T19:27:15.916Z,19.85
2023-03-29T19:29:44.325Z,20.45
2023-03-29T19:32:12.448Z,22.75
2023-03-29T19:34:42.570Z,21.90
2023-03-29T19:37:10.929Z,21.63
2023-03-29T19:39:40.989Z,20.55
2023-03-29T19:42:09.261Z,22.10
2023-03-29T19:44:38.320Z,21.67
2023-03-29T19:47:06.706Z,19.27
2023-03-29T19:49:36.400Z,16.33
2023-03-29T19:52:06.310Z,19.35
2023-03-29T19:54:34.810Z,15.73
2023-03-29T19:57:04.009Z,18.05
2023-03-29T19:59:32.566Z,18.67
2023-03-29T20:02:02.133Z,15.70
2023-03-29T20:04:33.507Z,18.20
2023-03-29T20:07:01.775Z,18.17
2023-03-29T20:09:32.438Z,16.23
2023-03-29T20:12:00.765Z,16.02
2023-03-29T20:14:29.163Z,13.05
2023-03-29T20:16:57.477Z,15.45
2023-03-29T20:19:26.838Z,14.60
2023-03-29T20:21:57.268Z,15.90
2023-03-29T20:24:26.331Z,15.20
2023-03-29T20:26:56.070Z,14.13
2023-03-29T20:29:24.814Z,11.93
2023-03-29T20:31:53.214Z,12.07
2023-03-29T20:34:21.665Z,10.93
2023-03-29T20:36:49.848Z,11.82
2023-03-29T20:39:18.994Z,11.90
2023-03-29T20:41:48.659Z,11.20
2023-03-29T20:44:18.947Z,10.82
2023-03-29T20:47:02.215Z,10.20
2023-03-29T20:49:36.847Z,9.10
2023-03-29T20:52:08.166Z,9.15
2023-03-29T20:54:36.962Z,11.63
2023-03-29T20:57:05.385Z,11.77
2023-03-29T20:59:35.611Z,13.05
2023-03-29T21:02:03.943Z,12.10
2023-03-29T21:04:32.475Z,11.85
2023-03-29T21:07:03.136Z,11.10
2023-03-29T21:09:34.158Z,11.48
2023-03-29T21:12:02.560Z,9.80
2023-03-29T21:14:33.085Z,11.23
2023-03-29T21:17:02.699Z,12.20
2023-03-29T21:19:31.242Z,12.80
2023-03-29T21:21:59.390Z,14.48
2023-03-29T21:24:27.997Z,13.52
2023-03-29T21:26:56.357Z,14.48
2023-03-29T21:29:25.084Z,13.73
2023-03-29T21:31:53.832Z,13.52
2023-03-29T21:34:23.826Z,13.90
2023-03-29T21:36:52.049Z,14.63
2023-03-29T21:39:20.839Z,13.18
2023-03-29T21:41:49.045Z,12.73
2023-03-29T21:44:17.473Z,12.57
2023-03-29T21:46:46.612Z,11.32
2023-03-29T21:49:14.977Z,11.65
2023-03-29T21:51:44.430Z,12.05
2023-03-29T21:54:12.928Z,11.52
2023-03-29T21:56:41.127Z,12.25
2023-03-29T21:59:09.758Z,12.65
2023-03-29T22:01:37.964Z,12.32
2023-03-29T22:04:06.836Z,11.18
2023-03-29T22:06:34.955Z,11.75
2023-03-29T22:09:05.991Z,10.18
2023-03-29T22:11:34.654Z,10.15
2023-03-29T22:14:04.045Z,10.85
2023-03-29T22:16:32.323Z,11.40
2023-03-29T22:19:00.864Z,9.30
2023-03-29T22:21:31.101Z,10.10
2023-03-29T22:24:01.213Z,9.00
2023-03-29T22:26:32.536Z,9.63
2023-03-29T22:29:01.616Z,9.68
2023-03-29T22:31:30.732Z,9.90
2023-03-29T22:34:00.636Z,9.05
2023-03-29T22:36:30.567Z,10.48
2023-03-29T22:38:59.532Z,9.23
2023-03-29T22:41:28.874Z,9.35
2023-03-29T22:44:00.903Z,11.88
2023-03-29T22:46:29.240Z,9.57
2023-03-29T22:48:57.738Z,10.02
2023-03-29T22:51:26.208Z,9.50
2023-03-29T22:53:54.646Z,10.48
2023-03-29T22:56:23.215Z,9.38
2023-03-29T22:58:51.904Z,9.05
2023-03-29T23:01:21.532Z,9.13
2023-03-29T23:03:50.072Z,9.95
2023-03-29T23:06:18.379Z,11.05
2023-03-29T23:08:46.781Z,10.38
2023-03-29T23:11:14.958Z,10.63
2023-03-29T23:13:43.469Z,10.55
2023-03-29T23:16:11.580Z,9.93
2023-03-29T23:18:41.516Z,9.88
2023-03-29T23:21:10.446Z,10.50
2023-03-29T23:23:39.313Z,10.68
2023-03-29T23:26:08.337Z,10.88
2023-03-29T23:28:36.794Z,9.30
2023-03-29T23:31:07.038Z,9.27
2023-03-29T23:33:38.413Z,9.63
2023-03-29T23:36:09.942Z,9.05
2023-03-29T23:38:39.718Z,9.07
2023-03-29T23:41:10.771Z,10.32
2023-03-29T23:43:41.312Z,10.18
2023-03-29T23:46:10.796Z,9.73
2023-03-29T23:48:39.390Z,10.80
2023-03-29T23:51:09.818Z,11.48
2023-03-29T23:53:38.319Z,11.07
2023-03-29T23:56:07.710Z,10.82
2023-03-29T23:58:37.893Z,10.95
